createdAt,value
2022-10-22T00:00:40.224Z,14.64
2022-10-22T00:03:07.203Z,14.64
2022-10-22T00:05:34.186Z,14.61
2022-10-22T00:08:01.127Z,14.58
2022-10-22T00:10:28.095Z,14.58
2022-10-22T00:12:55.131Z,14.57
2022-10-22T00:15:22.221Z,14.56
2022-10-22T00:17:49.758Z,14.54
2022-10-22T00:20:16.755Z,14.52
2022-10-22T00:22:43.739Z,14.49
2022-10-22T00:25:10.753Z,14.45
2022-10-22T00:27:37.804Z,14.45
2022-10-22T00:30:05.516Z,14.43
2022-10-22T00:32:32.516Z,14.42
2022-10-22T00:34:59.455Z,14.41
2022-10-22T00:37:26.544Z,14.40
2022-10-22T00:39:53.571Z,14.41
2022-10-22T00:42:30.278Z,14.39
2022-10-22T00:45:10.618Z,14.37
2022-10-22T00:47:58.946Z,14.34
2022-10-22T00:50:39.792Z,14.35
2022-10-22T00:53:13.153Z,14.31
2022-10-22T00:55:42.205Z,14.29
2022-10-22T00:58:09.521Z,14.29
2022-10-22T01:00:36.786Z,14.26
2022-10-22T01:03:04.534Z,14.25
2022-10-22T01:05:41.298Z,14.25
2022-10-22T01:08:23.346Z,14.24
2022-10-22T01:11:22.400Z,14.21
2022-10-22T01:14:44.958Z,14.18
2022-10-22T01:17:48.693Z,14.16
2022-10-22T01:20:48.191Z,14.14
2022-10-22T01:23:52.655Z,14.16
2022-10-22T01:26:37.644Z,14.14
2022-10-22T01:29:14.587Z,14.13
2022-10-22T01:32:10.197Z,14.12
2022-10-22T01:34:41.396Z,14.11
2022-10-22T01:37:12.848Z,14.11
2022-10-22T01:39:42.252Z,14.09
2022-10-22T01:42:09.251Z,14.08
2022-10-22T01:44:37.417Z,14.08
2022-10-22T01:47:43.222Z,14.07
2022-10-22T01:50:49.751Z,14.06
2022-10-22T01:53:36.007Z,14.06
2022-10-22T01:56:32.572Z,14.04
2022-10-22T01:59:30.348Z,14.02
2022-10-22T02:02:28.127Z,14.01
2022-10-22T02:05:09.058Z,14.00
2022-10-22T02:08:10.680Z,13.98
2022-10-22T02:10:40.556Z,13.97
2022-10-22T02:13:17.239Z,13.95
2022-10-22T02:15:46.770Z,13.93
2022-10-22T02:18:16.705Z,13.93
2022-10-22T02:20:43.708Z,13.93
2022-10-22T02:23:11.333Z,13.90
2022-10-22T02:25:47.736Z,13.89
2022-10-22T02:28:32.438Z,13.89
2022-10-22T02:31:15.567Z,13.89
2022-10-22T02:33:48.824Z,13.89
2022-10-22T02:36:17.829Z,13.87
2022-10-22T02:38:47.520Z,13.87
2022-10-22T02:41:16.671Z,13.86
2022-10-22T02:43:50.632Z,13.84
2022-10-22T02:46:17.794Z,13.83
2022-10-22T02:48:44.829Z,13.81
2022-10-22T02:51:11.795Z,13.82
2022-10-22T02:53:38.861Z,13.81
2022-10-22T02:56:06.133Z,13.80
2022-10-22T02:58:33.138Z,13.79
2022-10-22T03:01:00.244Z,13.80
2022-10-22T03:03:27.226Z,13.81
2022-10-22T03:05:54.216Z,13.82
2022-10-22T03:08:21.173Z,13.82
2022-10-22T03:10:48.160Z,13.81
2022-10-22T03:13:15.082Z,13.78
2022-10-22T03:15:42.019Z,13.77
2022-10-22T03:18:08.967Z,13.79
2022-10-22T03:20:35.936Z,13.78
2022-10-22T03:23:03.334Z,13.79
2022-10-22T03:25:34.391Z,13.76
2022-10-22T03:28:07.127Z,13.74
2022-10-22T03:30:34.107Z,13.73
2022-10-22T03:33:01.061Z,13.72
2022-10-22T03:35:28.193Z,13.72
2022-10-22T03:37:55.280Z,13.70
2022-10-22T03:40:22.696Z,13.70
2022-10-22T03:42:49.717Z,13.71
2022-10-22T03:45:16.695Z,13.71
2022-10-22T03:47:44.011Z,13.70
2022-10-22T03:50:11.355Z,13.68
2022-10-22T03:52:40.284Z,13.69
2022-10-22T03:55:09.792Z,13.69
2022-10-22T03:57:36.976Z,13.69
2022-10-22T04:00:06.759Z,13.68
2022-10-22T04:02:33.736Z,13.68
2022-10-22T04:05:00.746Z,13.68
2022-10-22T04:07:27.804Z,13.68
2022-10-22T04:09:54.755Z,13.67
2022-10-22T04:12:21.674Z,13.65
2022-10-22T04:14:48.674Z,13.63
2022-10-22T04:17:16.103Z,13.62
2022-10-22T04:19:43.158Z,13.59
2022-10-22T04:22:10.135Z,13.58
2022-10-22T04:24:37.308Z,13.55
2022-10-22T04:27:04.456Z,13.54
2022-10-22T04:29:31.393Z,13.49
2022-10-22T04:31:58.361Z,13.47
2022-10-22T04:34:28.873Z,13.44
2022-10-22T04:36:56.466Z,13.42
2022-10-22T04:39:23.665Z,13.39
2022-10-22T04:41:50.586Z,13.36
2022-10-22T04:44:18.032Z,13.34
2022-10-22T04:46:45.281Z,13.32
2022-10-22T04:49:12.304Z,13.31
2022-10-22T04:51:39.744Z,13.30
2022-10-22T04:54:06.874Z,13.29
2022-10-22T04:56:33.859Z,13.28
2022-10-22T04:59:07.800Z,13.26
2022-10-22T05:01:43.191Z,13.24
2022-10-22T05:04:17.422Z,13.22
2022-10-22T05:06:45.286Z,13.21
2022-10-22T05:09:16.946Z,13.20
2022-10-22T05:11:48.254Z,13.19
2022-10-22T05:14:19.141Z,13.17
2022-10-22T05:16:48.268Z,13.14
2022-10-22T05:19:29.332Z,13.14
2022-10-22T05:22:00.280Z,13.13
2022-10-22T05:24:28.364Z,13.11
2022-10-22T05:26:57.748Z,13.09
2022-10-22T05:29:25.399Z,13.08
2022-10-22T05:31:53.326Z,13.06
2022-10-22T05:34:20.420Z,13.05
2022-10-22T05:36:47.408Z,13.03
2022-10-22T05:39:14.408Z,13.02
2022-10-22T05:41:41.659Z,13.02
2022-10-22T05:44:11.890Z,13.00
2022-10-22T05:46:38.861Z,13.00
2022-10-22T05:49:07.103Z,13.01
2022-10-22T05:51:36.517Z,13.00
2022-10-22T05:54:07.813Z,12.99
2022-10-22T05:56:36.639Z,12.98
2022-10-22T06:01:35.870Z,12.96
2022-10-22T06:04:07.014Z,12.94
2022-10-22T06:06:36.006Z,12.93
2022-10-22T06:09:23.875Z,12.91
2022-10-22T06:11:52.095Z,12.91
2022-10-22T06:14:20.397Z,12.90
2022-10-22T06:16:47.872Z,12.90
2022-10-22T06:19:17.618Z,12.91
2022-10-22T06:21:45.601Z,12.93
2022-10-22T06:24:13.379Z,12.94
2022-10-22T06:26:41.171Z,12.96
2022-10-22T06:29:08.486Z,12.99
2022-10-22T06:31:38.713Z,13.01
2022-10-22T06:34:08.321Z,13.03
2022-10-22T06:36:36.132Z,13.05
2022-10-22T06:39:03.861Z,13.06
2022-10-22T06:41:31.232Z,13.10
2022-10-22T06:43:58.335Z,13.12
2022-10-22T06:46:26.427Z,13.14
2022-10-22T06:48:57.872Z,13.15
2022-10-22T06:51:26.530Z,13.18
2022-10-22T06:53:55.588Z,13.21
2022-10-22T06:56:27.029Z,13.22
2022-10-22T06:58:56.806Z,13.25
2022-10-22T07:01:28.994Z,13.26
2022-10-22T07:03:56.371Z,13.28
2022-10-22T07:06:25.403Z,13.29
2022-10-22T07:08:54.166Z,13.30
2022-10-22T07:11:28.010Z,13.31
2022-10-22T07:13:57.341Z,13.33
2022-10-22T07:16:29.552Z,13.33
2022-10-22T07:19:00.483Z,13.34
2022-10-22T07:21:27.832Z,13.35
2022-10-22T07:23:54.954Z,13.36
2022-10-22T07:26:24.870Z,13.39
2022-10-22T07:28:52.386Z,13.40
2022-10-22T07:31:19.762Z,13.43
2022-10-22T07:33:46.976Z,13.46
2022-10-22T07:36:19.143Z,13.51
2022-10-22T07:38:49.039Z,13.55
2022-10-22T07:41:17.100Z,13.60
2022-10-22T07:43:44.781Z,13.67
2022-10-22T07:46:12.453Z,13.73
2022-10-22T07:48:39.715Z,13.80
2022-10-22T07:51:07.151Z,13.88
2022-10-22T07:53:34.401Z,13.95
2022-10-22T07:56:01.609Z,14.01
2022-10-22T07:58:28.740Z,14.08
2022-10-22T08:00:58.156Z,14.14
2022-10-22T08:03:25.112Z,14.20
2022-10-22T08:05:52.768Z,14.24
2022-10-22T08:08:20.692Z,14.31
2022-10-22T08:10:50.802Z,14.37
2022-10-22T08:13:17.762Z,14.43
2022-10-22T08:15:46.749Z,14.49
2022-10-22T08:18:14.222Z,14.54
2022-10-22T08:20:41.598Z,14.59
2022-10-22T08:23:09.086Z,14.64
2022-10-22T08:25:36.468Z,14.71
2022-10-22T08:28:03.849Z,14.76
2022-10-22T08:30:30.866Z,14.82
2022-10-22T08:32:57.827Z,14.90
2022-10-22T08:35:24.893Z,14.95
2022-10-22T08:37:51.837Z,14.97
2022-10-22T08:40:31.694Z,15.03
2022-10-22T08:43:27.703Z,15.06
2022-10-22T08:46:45.387Z,15.10
2022-10-22T08:49:34.300Z,15.17
2022-10-22T08:52:03.559Z,15.22
2022-10-22T08:54:53.755Z,15.30
2022-10-22T08:57:43.224Z,15.33
2022-10-22T09:00:36.402Z,15.39
2022-10-22T09:03:35.844Z,15.43
2022-10-22T09:06:22.776Z,15.48
2022-10-22T09:08:51.667Z,15.55
2022-10-22T09:11:37.772Z,15.57
2022-10-22T09:14:05.798Z,15.60
2022-10-22T09:17:04.043Z,15.63
2022-10-22T09:19:42.133Z,15.64
2022-10-22T09:22:51.022Z,15.72
2022-10-22T09:25:28.552Z,15.77
2022-10-22T09:27:58.562Z,15.85
2022-10-22T09:30:33.449Z,15.94
2022-10-22T09:33:06.203Z,15.99
2022-10-22T09:35:54.078Z,16.05
2022-10-22T09:38:29.873Z,16.11
2022-10-22T09:40:58.927Z,16.17
2022-10-22T09:43:26.331Z,16.25
2022-10-22T09:46:04.024Z,16.32
2022-10-22T09:48:41.399Z,16.36
2022-10-22T09:51:37.348Z,16.44
2022-10-22T09:54:17.610Z,16.45
2022-10-22T09:57:18.938Z,16.53
2022-10-22T09:59:50.102Z,16.62
2022-10-22T10:02:38.142Z,16.65
2022-10-22T10:05:06.563Z,16.66
2022-10-22T10:07:36.697Z,16.74
2022-10-22T10:10:30.743Z,16.73
2022-10-22T10:13:26.637Z,16.77
2022-10-22T10:16:12.336Z,16.91
2022-10-22T10:19:26.543Z,16.95
2022-10-22T10:22:27.142Z,17.04
2022-10-22T10:25:37.498Z,17.12
2022-10-22T10:28:19.650Z,17.16
2022-10-22T10:31:24.254Z,17.25
2022-10-22T10:34:03.912Z,17.33
2022-10-22T10:36:56.735Z,17.40
2022-10-22T10:39:48.638Z,17.40
2022-10-22T10:42:49.326Z,17.46
2022-10-22T10:45:32.705Z,17.53
2022-10-22T10:48:28.703Z,17.59
2022-10-22T10:51:38.206Z,17.62
2022-10-22T10:54:15.141Z,17.73
2022-10-22T10:57:00.316Z,17.77
2022-10-22T11:00:13.898Z,17.90
2022-10-22T11:02:58.396Z,17.90
2022-10-22T11:05:53.066Z,17.95
2022-10-22T11:08:39.585Z,18.00
2022-10-22T11:11:18.763Z,18.06
2022-10-22T11:14:30.125Z,18.15
2022-10-22T11:17:03.462Z,18.21
2022-10-22T11:20:03.380Z,18.33
2022-10-22T11:23:13.201Z,18.36
2022-10-22T11:25:47.144Z,18.48
2022-10-22T11:28:28.872Z,18.57
2022-10-22T11:31:16.723Z,18.72
2022-10-22T11:34:00.582Z,18.82
2022-10-22T11:36:42.793Z,18.93
2022-10-22T11:39:38.551Z,18.96
2022-10-22T11:42:12.213Z,19.02
2022-10-22T11:45:00.505Z,19.03
2022-10-22T11:48:11.395Z,19.13
2022-10-22T11:50:41.387Z,19.09
2022-10-22T11:53:14.492Z,19.11
2022-10-22T11:55:48.391Z,19.01
2022-10-22T11:58:44.893Z,19.11
2022-10-22T12:01:11.723Z,19.08
2022-10-22T12:03:53.892Z,19.16
2022-10-22T12:06:24.935Z,19.14
2022-10-22T12:08:54.769Z,19.27
2022-10-22T12:11:41.237Z,19.38
2022-10-22T12:14:32.325Z,19.41
2022-10-22T12:17:05.228Z,19.44
2022-10-22T12:19:44.893Z,19.61
2022-10-22T12:22:24.822Z,19.50
2022-10-22T12:24:58.840Z,19.47
2022-10-22T12:27:27.777Z,19.42
2022-10-22T12:29:58.072Z,19.23
2022-10-22T12:32:38.837Z,19.32
2022-10-22T12:35:18.921Z,19.22
2022-10-22T12:37:52.735Z,19.37
2022-10-22T12:40:25.285Z,19.32
2022-10-22T12:43:02.439Z,19.20
2022-10-22T12:45:36.634Z,19.24
2022-10-22T12:48:29.268Z,19.13
2022-10-22T12:51:02.054Z,19.13
2022-10-22T12:53:39.652Z,19.22
2022-10-22T12:56:16.288Z,19.15
2022-10-22T12:59:01.558Z,19.11
2022-10-22T13:01:36.348Z,19.02
2022-10-22T13:04:06.737Z,19.11
2022-10-22T13:06:36.919Z,19.01
2022-10-22T13:09:17.932Z,19.09
2022-10-22T13:12:03.079Z,19.00
2022-10-22T13:14:38.044Z,18.99
2022-10-22T13:17:23.947Z,18.98
2022-10-22T13:20:05.211Z,19.05
2022-10-22T13:22:39.369Z,19.10
2022-10-22T13:25:14.848Z,19.11
2022-10-22T13:28:07.931Z,19.17
2022-10-22T13:30:37.730Z,19.22
2022-10-22T13:33:19.880Z,19.29
2022-10-22T13:35:46.853Z,19.34
2022-10-22T13:38:22.287Z,19.40
2022-10-22T13:40:50.261Z,19.42
2022-10-22T13:43:18.428Z,19.43
2022-10-22T13:45:47.977Z,19.37
2022-10-22T13:48:23.148Z,19.34
2022-10-22T13:50:51.554Z,19.31
2022-10-22T13:53:23.944Z,19.33
2022-10-22T13:55:51.289Z,19.26
2022-10-22T13:58:21.665Z,19.21
2022-10-22T14:00:59.354Z,19.21
2022-10-22T14:03:34.906Z,19.18
2022-10-22T14:06:01.978Z,19.17
2022-10-22T14:08:29.094Z,19.14
2022-10-22T14:10:56.254Z,19.11
2022-10-22T14:13:23.393Z,19.07
2022-10-22T14:15:52.048Z,19.05
2022-10-22T14:18:27.302Z,19.04
2022-10-22T14:21:10.121Z,19.01
2022-10-22T14:23:37.189Z,18.97
2022-10-22T14:26:04.820Z,18.92
2022-10-22T14:28:41.050Z,18.87
2022-10-22T14:31:10.988Z,18.81
2022-10-22T14:33:39.069Z,18.81
2022-10-22T14:36:06.366Z,18.78
2022-10-22T14:38:33.741Z,18.77
2022-10-22T14:41:00.704Z,18.75
2022-10-22T14:43:31.053Z,18.72
2022-10-22T14:45:58.640Z,18.70
2022-10-22T14:48:25.585Z,18.65
2022-10-22T14:50:52.603Z,18.65
2022-10-22T14:53:19.610Z,18.63
2022-10-22T14:55:48.951Z,18.62
2022-10-22T14:58:15.921Z,18.67
2022-10-22T15:00:44.040Z,18.75
2022-10-22T15:03:11.738Z,18.85
2022-10-22T15:05:44.322Z,19.01
2022-10-22T15:08:15.605Z,19.15
2022-10-22T15:10:42.558Z,19.31
2022-10-22T15:13:09.922Z,19.46
2022-10-22T15:15:40.407Z,19.60
2022-10-22T15:18:07.789Z,19.69
2022-10-22T15:20:34.903Z,19.80
2022-10-22T15:23:02.463Z,19.89
2022-10-22T15:25:30.449Z,19.98
2022-10-22T15:28:01.888Z,20.04
2022-10-22T15:30:34.534Z,20.06
2022-10-22T15:33:02.096Z,20.05
2022-10-22T15:35:29.053Z,20.02
2022-10-22T15:37:56.242Z,19.92
2022-10-22T15:40:23.237Z,19.89
2022-10-22T15:42:50.155Z,19.83
2022-10-22T15:45:17.215Z,19.78
2022-10-22T15:47:48.564Z,19.73
2022-10-22T15:50:16.555Z,19.65
2022-10-22T15:52:43.575Z,19.57
2022-10-22T15:57:43.930Z,19.37
2022-10-22T16:00:12.019Z,19.25
2022-10-22T16:02:42.284Z,19.12
2022-10-22T16:05:09.863Z,18.98
2022-10-22T16:07:36.956Z,18.84
2022-10-22T16:10:04.792Z,18.71
2022-10-22T16:12:31.717Z,18.59
2022-10-22T16:14:58.645Z,18.47
2022-10-22T16:17:25.575Z,18.34
2022-10-22T16:19:52.525Z,18.22
2022-10-22T16:22:19.598Z,18.14
2022-10-22T16:24:46.605Z,18.06
2022-10-22T16:27:13.549Z,17.93
2022-10-22T16:29:40.568Z,17.83
2022-10-22T16:32:10.737Z,17.76
2022-10-22T16:34:37.666Z,17.66
2022-10-22T16:37:09.827Z,17.59
2022-10-22T16:39:37.097Z,17.51
2022-10-22T16:42:04.180Z,17.45
2022-10-22T16:44:31.118Z,17.39
2022-10-22T16:46:58.036Z,17.33
2022-10-22T16:49:25.046Z,17.28
2022-10-22T16:51:51.993Z,17.21
2022-10-22T16:54:19.205Z,17.16
2022-10-22T16:56:46.150Z,17.12
2022-10-22T16:59:13.114Z,17.06
2022-10-22T17:01:41.373Z,17.04
2022-10-22T17:04:08.835Z,17.00
2022-10-22T17:06:35.924Z,16.99
2022-10-22T17:09:03.899Z,16.96
2022-10-22T17:11:35.678Z,16.91
2022-10-22T17:14:04.280Z,16.87
2022-10-22T17:16:31.408Z,16.85
2022-10-22T17:18:58.596Z,16.84
2022-10-22T17:21:26.100Z,16.85
2022-10-22T17:23:57.482Z,16.82
2022-10-22T17:26:26.659Z,16.82
2022-10-22T17:28:54.521Z,16.79
2022-10-22T17:31:29.075Z,16.79
2022-10-22T17:33:57.244Z,16.76
2022-10-22T17:36:26.485Z,16.76
2022-10-22T17:38:57.441Z,16.78
2022-10-22T17:41:28.858Z,16.76
2022-10-22T17:43:57.131Z,16.76
2022-10-22T17:46:27.625Z,16.73
2022-10-22T17:49:12.199Z,16.72
2022-10-22T17:51:39.221Z,16.72
2022-10-22T17:54:09.025Z,16.72
2022-10-22T17:56:38.759Z,16.71
2022-10-22T17:59:07.186Z,16.70
2022-10-22T18:01:39.375Z,16.71
2022-10-22T18:04:08.517Z,16.69
2022-10-22T18:06:36.401Z,16.66
2022-10-22T18:09:06.144Z,16.66
2022-10-22T18:11:34.356Z,16.69
2022-10-22T18:14:02.553Z,16.68
2022-10-22T18:16:29.634Z,16.69
2022-10-22T18:18:57.723Z,16.65
2022-10-22T18:21:28.790Z,16.65
2022-10-22T18:23:57.450Z,16.63
2022-10-22T18:26:26.791Z,16.61
2022-10-22T18:28:56.436Z,16.60
2022-10-22T18:31:25.469Z,16.59
2022-10-22T18:36:24.350Z,16.55
2022-10-22T18:38:53.951Z,16.55
2022-10-22T18:41:21.837Z,16.54
2022-10-22T18:44:05.574Z,16.52
2022-10-22T18:46:34.965Z,16.50
2022-10-22T18:49:02.005Z,16.48
2022-10-22T18:51:31.595Z,16.49
2022-10-22T18:54:05.958Z,16.48
2022-10-22T18:56:46.523Z,16.45
2022-10-22T18:59:23.062Z,16.44
2022-10-22T19:01:52.212Z,16.42
2022-10-22T19:04:19.291Z,16.41
2022-10-22T19:06:46.736Z,16.41
2022-10-22T19:09:17.409Z,16.39
2022-10-22T19:11:45.866Z,16.38
2022-10-22T19:14:19.261Z,16.35
2022-10-22T19:16:46.586Z,16.34
2022-10-22T19:19:19.324Z,16.32
2022-10-22T19:21:46.800Z,16.31
2022-10-22T19:24:17.772Z,16.29
2022-10-22T19:26:46.023Z,16.27
2022-10-22T19:29:17.174Z,16.26
2022-10-22T19:31:44.525Z,16.26
2022-10-22T19:34:11.894Z,16.26
2022-10-22T19:36:39.150Z,16.24
2022-10-22T19:39:06.806Z,16.26
2022-10-22T19:41:34.148Z,16.28
2022-10-22T19:44:01.751Z,16.29
2022-10-22T19:46:32.565Z,16.31
2022-10-22T19:49:01.452Z,16.32
2022-10-22T19:51:30.518Z,16.31
2022-10-22T19:54:07.216Z,16.30
2022-10-22T19:56:37.521Z,16.32
2022-10-22T19:59:07.178Z,16.30
2022-10-22T20:01:36.265Z,16.29
2022-10-22T20:04:07.709Z,16.30
2022-10-22T20:06:34.937Z,16.29
2022-10-22T20:09:01.931Z,16.27
2022-10-22T20:11:30.127Z,16.27
2022-10-22T20:13:58.120Z,16.26
2022-10-22T20:16:29.572Z,16.25
2022-10-22T20:19:01.502Z,16.22
2022-10-22T20:21:29.140Z,16.21
2022-10-22T20:23:57.435Z,16.20
2022-10-22T20:26:27.788Z,16.19
2022-10-22T20:28:58.290Z,16.19
2022-10-22T20:31:29.155Z,16.17
2022-10-22T20:34:01.266Z,16.15
2022-10-22T20:36:31.458Z,16.14
2022-10-22T20:39:06.283Z,16.12
2022-10-22T20:41:35.091Z,16.11
2022-10-22T20:44:01.996Z,16.08
2022-10-22T20:46:32.094Z,16.07
2022-10-22T20:49:11.821Z,16.06
2022-10-22T20:51:39.073Z,16.05
2022-10-22T20:54:07.568Z,16.05
2022-10-22T20:56:40.146Z,16.03
2022-10-22T20:59:10.696Z,16.02
2022-10-22T21:01:42.742Z,16.01
2022-10-22T21:04:09.962Z,15.99
2022-10-22T21:06:41.315Z,15.95
2022-10-22T21:09:10.742Z,15.93
2022-10-22T21:11:39.033Z,15.91
2022-10-22T21:14:08.748Z,15.89
2022-10-22T21:16:35.891Z,15.87
2022-10-22T21:19:02.836Z,15.85
2022-10-22T21:21:29.772Z,15.79
2022-10-22T21:23:56.693Z,15.76
2022-10-22T21:26:23.657Z,15.72
2022-10-22T21:28:50.834Z,15.67
2022-10-22T21:31:26.079Z,15.65
2022-10-22T21:33:54.042Z,15.59
2022-10-22T21:36:23.363Z,15.54
2022-10-22T21:38:52.210Z,15.54
2022-10-22T21:41:21.793Z,15.49
2022-10-22T21:43:49.301Z,15.46
2022-10-22T21:46:23.090Z,15.45
2022-10-22T21:49:01.390Z,15.43
2022-10-22T21:51:35.150Z,15.44
2022-10-22T21:54:02.215Z,15.43
2022-10-22T21:56:34.281Z,15.44
2022-10-22T21:59:04.118Z,15.42
2022-10-22T22:01:31.212Z,15.40
2022-10-22T22:03:58.753Z,15.39
2022-10-22T22:06:29.641Z,15.37
2022-10-22T22:08:59.278Z,15.35
2022-10-22T22:11:28.103Z,15.33
2022-10-22T22:13:57.443Z,15.33
2022-10-22T22:16:29.324Z,15.30
2022-10-22T22:18:58.917Z,15.27
2022-10-22T22:21:26.262Z,15.26
2022-10-22T22:23:53.818Z,15.24
2022-10-22T22:26:28.285Z,15.23
2022-10-22T22:28:58.451Z,15.23
2022-10-22T22:31:32.031Z,15.22
2022-10-22T22:34:08.417Z,15.21
2022-10-22T22:36:41.912Z,15.18
2022-10-22T22:39:12.895Z,15.20
2022-10-22T22:41:41.240Z,15.20
2022-10-22T22:44:08.362Z,15.20
2022-10-22T22:46:35.918Z,15.20
2022-10-22T22:49:03.847Z,15.22
2022-10-22T22:51:31.137Z,15.21
2022-10-22T22:54:00.074Z,15.22
2022-10-22T22:56:30.106Z,15.24
2022-10-22T22:58:57.756Z,15.25
2022-10-22T23:01:37.546Z,15.25
2022-10-22T23:04:13.258Z,15.27
2022-10-22T23:06:40.522Z,15.31
2022-10-22T23:09:11.827Z,15.33
2022-10-22T23:11:40.449Z,15.36
2022-10-22T23:14:10.316Z,15.37
2022-10-22T23:16:41.999Z,15.30
2022-10-22T23:19:10.030Z,15.26
2022-10-22T23:21:41.496Z,15.20
2022-10-22T23:24:13.405Z,15.16
2022-10-22T23:26:48.097Z,15.12
2022-10-22T23:29:19.682Z,15.10
2022-10-22T23:31:48.018Z,15.10
2022-10-22T23:36:53.342Z,15.15
2022-10-22T23:39:24.244Z,15.18
2022-10-22T23:41:53.030Z,15.22
2022-10-22T23:44:21.866Z,15.21
2022-10-22T23:46:48.830Z,15.21
2022-10-22T23:49:16.541Z,15.21
2022-10-22T23:51:43.511Z,15.18
2022-10-22T23:54:17.687Z,15.15
2022-10-22T23:56:44.864Z,15.13
